createdAt,value
2016-05-15T00:00:03.935Z,7.4
2016-05-15T00:00:13.935Z,7.5
2016-05-15T00:00:23.937Z,7.3
2016-05-15T00:00:33.952Z,7.4
2016-05-15T00:00:43.937Z,7.3
2016-05-15T00:00:53.780Z,7.3
2016-05-15T00:01:03.937Z,7.4
2016-05-15T00:01:13.780Z,7.3
2016-05-15T00:01:23.783Z,7.4
2016-05-15T00:01:33.940Z,7.4
2016-05-15T00:01:43.940Z,7.3
2016-05-15T00:01:53.940Z,7.3
2016-05-15T00:02:03.940Z,7.3
2016-05-15T00:02:13.955Z,7.3
2016-05-15T00:02:23.942Z,7.4
2016-05-15T00:02:33.942Z,7.4
2016-05-15T00:02:43.957Z,7.4
2016-05-15T00:02:53.957Z,7.4
2016-05-15T00:03:03.957Z,7.4
2016-05-15T00:03:13.817Z,7.3
2016-05-15T00:03:23.961Z,7.3
2016-05-15T00:03:33.821Z,7.3
2016-05-15T00:03:44.102Z,7.4
2016-05-15T00:03:54.086Z,7.4
2016-05-15T00:04:03.961Z,7.4
2016-05-15T00:04:13.836Z,7.4
2016-05-15T00:04:23.980Z,7.4
2016-05-15T00:04:33.964Z,7.4
2016-05-15T00:04:43.964Z,7.3
2016-05-15T00:04:53.824Z,7.3
2016-05-15T00:05:03.980Z,7.3
2016-05-15T00:05:13.964Z,7.4
2016-05-15T00:05:23.982Z,7.4
2016-05-15T00:05:33.982Z,7.5
2016-05-15T00:05:43.826Z,7.4
2016-05-15T00:05:53.982Z,7.4
2016-05-15T00:06:03.841Z,7.3
2016-05-15T00:06:13.982Z,7.3
2016-05-15T00:06:23.985Z,7.4
2016-05-15T00:06:33.985Z,7.3
2016-05-15T00:06:43.985Z,7.3
2016-05-15T00:06:54.000Z,7.3
2016-05-15T00:07:03.985Z,7.4
2016-05-15T00:07:14.000Z,7.4
2016-05-15T00:07:23.987Z,7.4
2016-05-15T00:07:34.002Z,7.5
2016-05-15T00:07:43.846Z,7.4
2016-05-15T00:07:54.002Z,7.4
2016-05-15T00:08:04.002Z,7.4
2016-05-15T00:08:14.002Z,7.3
2016-05-15T00:08:24.004Z,7.3
2016-05-15T00:08:34.004Z,7.3
2016-05-15T00:08:44.004Z,7.3
2016-05-15T00:08:54.004Z,7.3
2016-05-15T00:09:03.848Z,7.3
2016-05-15T00:09:14.004Z,7.4
2016-05-15T00:09:24.007Z,7.3
2016-05-15T00:09:33.867Z,7.3
2016-05-15T00:09:44.007Z,7.4
2016-05-15T00:09:53.867Z,7.3
2016-05-15T00:10:04.023Z,7.4
2016-05-15T00:10:14.023Z,7.3
2016-05-15T00:10:24.011Z,7.3
2016-05-15T00:10:34.027Z,7.3
2016-05-15T00:10:44.027Z,7.3
2016-05-15T00:10:54.027Z,7.3
2016-05-15T00:11:04.027Z,7.4
2016-05-15T00:11:14.027Z,7.3
2016-05-15T00:11:24.029Z,7.4
2016-05-15T00:11:34.029Z,7.3
2016-05-15T00:11:44.029Z,7.3
2016-05-15T00:11:54.045Z,7.3
2016-05-15T00:12:04.029Z,7.4
2016-05-15T00:12:14.045Z,7.3
2016-05-15T00:12:24.048Z,7.3
2016-05-15T00:12:34.032Z,7.3
2016-05-15T00:12:44.048Z,7.3
2016-05-15T00:12:54.048Z,7.3
2016-05-15T00:13:04.048Z,7.4
2016-05-15T00:13:14.048Z,7.4
2016-05-15T00:13:24.065Z,7.3
2016-05-15T00:13:34.050Z,7.4
2016-05-15T00:13:44.050Z,7.3
2016-05-15T00:13:54.050Z,7.4
2016-05-15T00:14:04.065Z,7.3
2016-05-15T00:14:14.050Z,7.4
2016-05-15T00:14:24.068Z,7.3
2016-05-15T00:14:34.053Z,7.4
2016-05-15T00:14:43.912Z,7.3
2016-05-15T00:14:54.068Z,7.3
2016-05-15T00:15:04.068Z,7.3
2016-05-15T00:15:14.053Z,7.2
2016-05-15T00:15:23.931Z,7.3
2016-05-15T00:15:34.071Z,7.3
2016-05-15T00:15:44.071Z,7.3
2016-05-15T00:15:54.071Z,7.3
2016-05-15T00:16:04.071Z,7.3
2016-05-15T00:16:14.071Z,7.3
2016-05-15T00:16:24.073Z,7.3
2016-05-15T00:16:34.073Z,7.3
2016-05-15T00:16:43.933Z,7.3
2016-05-15T00:16:54.089Z,7.4
2016-05-15T00:17:04.089Z,7.3
2016-05-15T00:17:14.073Z,7.3
2016-05-15T00:17:24.092Z,7.2
2016-05-15T00:17:34.092Z,7.2
2016-05-15T00:17:43.936Z,7.2
2016-05-15T00:17:54.092Z,7.2
2016-05-15T00:18:04.092Z,7.3
2016-05-15T00:18:14.092Z,7.2
2016-05-15T00:18:23.954Z,7.3
2016-05-15T00:18:34.798Z,7.3
2016-05-15T00:18:44.111Z,7.3
2016-05-15T00:18:54.111Z,7.3
2016-05-15T00:19:04.314Z,7.3
2016-05-15T00:19:13.970Z,7.3
2016-05-15T00:19:24.128Z,7.2
2016-05-15T00:19:34.113Z,7.3
2016-05-15T00:19:44.113Z,7.3
2016-05-15T00:19:54.113Z,7.3
2016-05-15T00:20:04.113Z,7.3
2016-05-15T00:20:14.113Z,7.3
2016-05-15T00:20:24.100Z,7.3
2016-05-15T00:20:34.116Z,7.4
2016-05-15T00:20:44.116Z,7.3
2016-05-15T00:20:54.116Z,7.2
2016-05-15T00:21:04.116Z,7.4
2016-05-15T00:21:14.116Z,7.3
2016-05-15T00:21:24.119Z,7.3
2016-05-15T00:21:34.119Z,7.3
2016-05-15T00:21:44.119Z,7.4
2016-05-15T00:21:53.978Z,7.3
2016-05-15T00:22:04.119Z,7.3
2016-05-15T00:22:14.134Z,7.3
2016-05-15T00:22:24.136Z,7.2
2016-05-15T00:22:34.121Z,7.3
2016-05-15T00:22:44.136Z,7.3
2016-05-15T00:22:54.136Z,7.2
2016-05-15T00:23:03.980Z,7.2
2016-05-15T00:23:14.136Z,7.3
2016-05-15T00:23:23.984Z,7.3
2016-05-15T00:23:34.140Z,7.2
2016-05-15T00:23:44.156Z,7.3
2016-05-15T00:23:54.156Z,7.3
2016-05-15T00:24:04.156Z,7.3
2016-05-15T00:24:14.156Z,7.3
2016-05-15T00:24:24.158Z,7.4
2016-05-15T00:24:34.142Z,7.3
2016-05-15T00:24:44.173Z,7.3
2016-05-15T00:24:54.173Z,7.3
2016-05-15T00:25:04.158Z,7.3
2016-05-15T00:25:14.173Z,7.3
2016-05-15T00:25:24.176Z,7.2
2016-05-15T00:25:34.161Z,7.2
2016-05-15T00:25:44.161Z,7.3
2016-05-15T00:25:54.161Z,7.2
2016-05-15T00:26:04.020Z,7.3
2016-05-15T00:26:14.161Z,7.2
2016-05-15T00:26:24.163Z,7.3
2016-05-15T00:26:34.163Z,7.2
2016-05-15T00:26:44.178Z,7.2
2016-05-15T00:26:54.022Z,7.3
2016-05-15T00:27:04.178Z,7.2
2016-05-15T00:27:14.163Z,7.2
2016-05-15T00:27:24.181Z,7.2
2016-05-15T00:27:34.181Z,7.2
2016-05-15T00:27:44.181Z,7.3
2016-05-15T00:27:54.041Z,7.3
2016-05-15T00:28:04.181Z,7.2
2016-05-15T00:28:14.181Z,7.3
2016-05-15T00:28:24.183Z,7.2
2016-05-15T00:28:34.183Z,7.3
2016-05-15T00:28:44.183Z,7.2
2016-05-15T00:28:54.183Z,7.2
2016-05-15T00:29:04.043Z,7.2
2016-05-15T00:29:14.183Z,7.3
2016-05-15T00:29:24.186Z,7.2
2016-05-15T00:29:34.186Z,7.1
2016-05-15T00:29:44.186Z,7.2
2016-05-15T00:29:54.202Z,7.2
2016-05-15T00:30:04.218Z,7.2
2016-05-15T00:30:14.202Z,7.2
2016-05-15T00:30:24.205Z,7.2
2016-05-15T00:30:34.049Z,7.2
2016-05-15T00:30:44.205Z,7.2
2016-05-15T00:30:54.205Z,7.1
2016-05-15T00:31:04.205Z,7.3
2016-05-15T00:31:14.064Z,7.2
2016-05-15T00:31:24.224Z,7.2
2016-05-15T00:31:34.224Z,7.2
2016-05-15T00:31:44.224Z,7.2
2016-05-15T00:31:54.067Z,7.3
2016-05-15T00:32:04.224Z,7.2
2016-05-15T00:32:14.224Z,7.2
2016-05-15T00:32:24.227Z,7.2
2016-05-15T00:32:34.227Z,7.2
2016-05-15T00:32:44.227Z,7.2
2016-05-15T00:32:54.227Z,7.2
2016-05-15T00:33:04.227Z,7.2
2016-05-15T00:33:14.227Z,7.2
2016-05-15T00:33:24.244Z,7.3
2016-05-15T00:33:34.229Z,7.2
2016-05-15T00:33:44.119Z,7.1
2016-05-15T00:33:54.244Z,7.2
2016-05-15T00:34:04.260Z,7.3
2016-05-15T00:34:14.760Z,7.2
2016-05-15T00:34:24.232Z,7.1
2016-05-15T00:34:34.091Z,7.2
2016-05-15T00:34:44.247Z,7.2
2016-05-15T00:34:54.247Z,7.2
2016-05-15T00:35:04.247Z,7.2
2016-05-15T00:35:14.247Z,7.2
2016-05-15T00:35:24.249Z,7.2
2016-05-15T00:35:34.249Z,7.2
2016-05-15T00:35:44.249Z,7.1
2016-05-15T00:35:54.265Z,7.1
2016-05-15T00:36:04.249Z,7.1
2016-05-15T00:36:14.249Z,7.2
2016-05-15T00:36:24.252Z,7.1
2016-05-15T00:36:34.252Z,7.1
2016-05-15T00:36:44.252Z,7.2
2016-05-15T00:36:54.268Z,7.1
2016-05-15T00:37:04.268Z,7.1
2016-05-15T00:37:14.268Z,7.1
2016-05-15T00:37:24.115Z,7.1
2016-05-15T00:37:34.271Z,7.1
2016-05-15T00:37:44.271Z,7.2
2016-05-15T00:37:54.271Z,7.2
2016-05-15T00:38:04.287Z,7.2
2016-05-15T00:38:14.271Z,7.1
2016-05-15T00:38:24.132Z,7.1
2016-05-15T00:38:34.289Z,7.2
2016-05-15T00:38:44.289Z,7.1
2016-05-15T00:38:54.289Z,7.1
2016-05-15T00:39:04.132Z,7.1
2016-05-15T00:39:14.289Z,7.1
2016-05-15T00:39:24.276Z,7.1
2016-05-15T00:39:34.135Z,7.2
2016-05-15T00:39:44.292Z,7.1
2016-05-15T00:39:54.135Z,7.1
2016-05-15T00:40:04.292Z,7.2
2016-05-15T00:40:14.292Z,7.1
2016-05-15T00:40:24.295Z,7.1
2016-05-15T00:40:34.295Z,7.1
2016-05-15T00:40:44.310Z,7.1
2016-05-15T00:40:54.295Z,7.2
2016-05-15T00:41:04.154Z,7.1
2016-05-15T00:41:14.310Z,7.1
2016-05-15T00:41:24.312Z,7.1
2016-05-15T00:41:34.297Z,7.1
2016-05-15T00:41:44.312Z,7.1
2016-05-15T00:41:54.312Z,7.2
2016-05-15T00:42:04.312Z,7.2
2016-05-15T00:42:14.312Z,7.1
2016-05-15T00:42:24.315Z,7.1
2016-05-15T00:42:34.315Z,7.1
2016-05-15T00:42:44.346Z,7.1
2016-05-15T00:42:54.315Z,7.1
2016-05-15T00:43:04.175Z,7.1
2016-05-15T00:43:14.315Z,7.1
2016-05-15T00:43:24.318Z,7.1
2016-05-15T00:43:34.318Z,7.1
2016-05-15T00:43:44.318Z,7
2016-05-15T00:43:54.318Z,7.1
2016-05-15T00:44:04.318Z,7.1
2016-05-15T00:44:14.334Z,7
2016-05-15T00:44:24.321Z,7.1
2016-05-15T00:44:34.337Z,7
2016-05-15T00:44:44.321Z,7.1
2016-05-15T00:44:54.337Z,7
2016-05-15T00:45:04.337Z,7
2016-05-15T00:45:14.337Z,7.1
2016-05-15T00:45:24.339Z,7.1
2016-05-15T00:45:34.339Z,7.1
2016-05-15T00:45:44.339Z,7
2016-05-15T00:45:54.339Z,7.1
2016-05-15T00:46:04.183Z,7
2016-05-15T00:46:14.354Z,7.1
2016-05-15T00:46:24.201Z,7.1
2016-05-15T00:46:34.357Z,7.1
2016-05-15T00:46:44.357Z,7
2016-05-15T00:46:54.357Z,7.1
2016-05-15T00:47:04.201Z,7
2016-05-15T00:47:14.357Z,7.1
2016-05-15T00:47:24.360Z,7
2016-05-15T00:47:34.360Z,7.1
2016-05-15T00:47:44.376Z,7.1
2016-05-15T00:47:54.360Z,7.1
2016-05-15T00:48:04.360Z,7.1
2016-05-15T00:48:14.360Z,7.1
2016-05-15T00:48:24.362Z,7.1
2016-05-15T00:48:34.378Z,7.1
2016-05-15T00:48:44.378Z,7.1
2016-05-15T00:48:54.644Z,7.1
2016-05-15T00:49:04.612Z,7.1
2016-05-15T00:49:14.347Z,7.1
2016-05-15T00:49:24.429Z,7.1
2016-05-15T00:49:34.382Z,7.2
2016-05-15T00:49:44.382Z,7.1
2016-05-15T00:49:54.382Z,7.1
2016-05-15T00:50:04.382Z,7.1
2016-05-15T00:50:14.382Z,7.1
2016-05-15T00:50:24.384Z,7.1
2016-05-15T00:50:34.384Z,7.1
2016-05-15T00:50:44.384Z,7.1
2016-05-15T00:50:54.384Z,7.2
2016-05-15T00:51:04.384Z,7.1
2016-05-15T00:51:14.384Z,7.1
2016-05-15T00:51:24.403Z,7.1
2016-05-15T00:51:34.403Z,7
2016-05-15T00:51:44.403Z,7.1
2016-05-15T00:51:54.387Z,7.1
2016-05-15T00:52:04.387Z,7.1
2016-05-15T00:52:14.403Z,7.1
2016-05-15T00:52:24.405Z,7.1
2016-05-15T00:52:34.405Z,7.1
2016-05-15T00:52:44.405Z,7.1
2016-05-15T00:52:54.405Z,7.1
2016-05-15T00:53:04.405Z,7.1
2016-05-15T00:53:14.248Z,7.1
2016-05-15T00:53:24.267Z,7.1
2016-05-15T00:53:34.423Z,7.1
2016-05-15T00:53:44.267Z,7.1
2016-05-15T00:53:54.267Z,7.1
2016-05-15T00:54:04.423Z,7.1
2016-05-15T00:54:14.423Z,7.1
2016-05-15T00:54:24.410Z,7.1
2016-05-15T00:54:34.425Z,7.1
2016-05-15T00:54:44.441Z,7.1
2016-05-15T00:54:54.425Z,7.1
2016-05-15T00:55:04.425Z,7.2
2016-05-15T00:55:14.425Z,7.1
2016-05-15T00:55:24.428Z,7.1
2016-05-15T00:55:34.428Z,7.1
2016-05-15T00:55:44.428Z,7.1
2016-05-15T00:55:54.428Z,7.1
2016-05-15T00:56:04.538Z,7.1
2016-05-15T00:56:14.428Z,7.1
2016-05-15T00:56:24.431Z,7
2016-05-15T00:56:34.463Z,7.1
2016-05-15T00:56:44.447Z,7.1
2016-05-15T00:56:54.291Z,7.2
2016-05-15T00:57:04.431Z,7.1
2016-05-15T00:57:14.447Z,7.1
2016-05-15T00:57:24.450Z,7.1
2016-05-15T00:57:34.450Z,7.1
2016-05-15T00:57:44.450Z,7.1
2016-05-15T00:57:54.450Z,7.1
2016-05-15T00:58:04.450Z,7.1
2016-05-15T00:58:14.450Z,7.2
2016-05-15T00:58:24.452Z,7.2
2016-05-15T00:58:34.468Z,7.1
2016-05-15T00:58:44.468Z,7.1
2016-05-15T00:58:54.468Z,7.1
2016-05-15T00:59:04.452Z,7.1
2016-05-15T00:59:14.452Z,7.1
2016-05-15T00:59:24.471Z,7.1
2016-05-15T00:59:34.314Z,7.1
2016-05-15T00:59:44.517Z,7.1
2016-05-15T00:59:54.471Z,7.1
2016-05-15T01:00:04.471Z,7.1
2016-05-15T01:00:14.471Z,7.1
2016-05-15T01:00:24.317Z,7.1
2016-05-15T01:00:34.520Z,7.1
2016-05-15T01:00:44.552Z,7.1
2016-05-15T01:00:54.474Z,7.1
2016-05-15T01:01:04.489Z,7.1
2016-05-15T01:01:14.474Z,7.1
2016-05-15T01:01:24.491Z,7.1
2016-05-15T01:01:34.491Z,7.2
2016-05-15T01:01:44.476Z,7.1
2016-05-15T01:01:54.476Z,7.1
2016-05-15T01:02:04.335Z,7.2
2016-05-15T01:02:14.632Z,7.1
2016-05-15T01:02:24.494Z,7.1
2016-05-15T01:02:34.494Z,7.1
2016-05-15T01:02:44.432Z,7.1
2016-05-15T01:02:54.557Z,7.1
2016-05-15T01:03:44.763Z,7.1
2016-05-15T01:03:54.638Z,7
2016-05-15T01:04:04.513Z,7
2016-05-15T01:04:14.763Z,7.1
2016-05-15T01:04:24.641Z,7
2016-05-15T01:04:34.485Z,7.1
2016-05-15T01:04:44.641Z,7.1
2016-05-15T01:04:54.641Z,7.1
2016-05-15T01:05:04.641Z,7.1
2016-05-15T01:05:14.500Z,7.1
2016-05-15T01:05:24.643Z,7.1
2016-05-15T01:05:34.502Z,7.1
2016-05-15T01:05:44.643Z,7.1
2016-05-15T01:05:54.690Z,7.1
2016-05-15T01:06:04.643Z,7.1
2016-05-15T01:06:14.658Z,7.1
2016-05-15T01:06:24.755Z,7.1
2016-05-15T01:06:34.661Z,7.1
2016-05-15T01:06:44.661Z,7.1
2016-05-15T01:06:54.771Z,7.2
2016-05-15T01:07:04.661Z,7.1
2016-05-15T01:07:14.677Z,7.1
2016-05-15T01:07:24.680Z,7.1
2016-05-15T01:07:34.664Z,7.1
2016-05-15T01:07:44.743Z,7.1
2016-05-15T01:07:54.524Z,7.2
2016-05-15T01:08:04.664Z,7.2
2016-05-15T01:08:14.664Z,7.1
2016-05-15T01:08:24.557Z,7.2
2016-05-15T01:08:34.682Z,7.1
2016-05-15T01:08:44.760Z,7.1
2016-05-15T01:08:54.666Z,7.1
2016-05-15T01:09:04.666Z,7.1
2016-05-15T01:09:14.729Z,7.1
2016-05-15T01:09:24.529Z,7.1
2016-05-15T01:09:34.685Z,7.2
2016-05-15T01:09:44.685Z,7.2
2016-05-15T01:09:54.763Z,7.1
2016-05-15T01:10:04.685Z,7.2
2016-05-15T01:10:14.763Z,7.2
2016-05-15T01:10:24.782Z,7.2
2016-05-15T01:10:34.688Z,7.1
2016-05-15T01:10:44.751Z,7.2
2016-05-15T01:10:54.688Z,7.1
2016-05-15T01:11:04.751Z,7.1
2016-05-15T01:11:14.704Z,7.1
2016-05-15T01:11:24.691Z,7.1
2016-05-15T01:11:34.691Z,7.1
2016-05-15T01:11:44.707Z,7.1
2016-05-15T01:11:54.707Z,7.1
2016-05-15T01:12:04.550Z,7.1
2016-05-15T01:12:14.800Z,7.1
2016-05-15T01:12:24.724Z,7.1
2016-05-15T01:12:34.552Z,7.1
2016-05-15T01:12:44.709Z,7.1
2016-05-15T01:12:54.709Z,7.1
2016-05-15T01:13:04.709Z,7.1
2016-05-15T01:13:14.709Z,7.1
2016-05-15T01:13:24.712Z,7.2
2016-05-15T01:13:34.727Z,7.2
2016-05-15T01:13:44.774Z,7.1
2016-05-15T01:13:54.727Z,7.1
2016-05-15T01:14:04.805Z,7.1
2016-05-15T01:14:14.727Z,7.1
2016-05-15T01:14:24.823Z,7
2016-05-15T01:14:34.729Z,7.1
2016-05-15T01:14:44.729Z,7
2016-05-15T01:14:54.823Z,7.1
2016-05-15T01:15:04.729Z,7
2016-05-15T01:15:14.729Z,7
2016-05-15T01:15:24.576Z,7
2016-05-15T01:15:34.732Z,7.1
2016-05-15T01:15:44.732Z,7
2016-05-15T01:15:54.732Z,7
2016-05-15T01:16:04.732Z,7
2016-05-15T01:16:14.732Z,7
2016-05-15T01:16:24.798Z,6.9
2016-05-15T01:16:34.829Z,7.1
2016-05-15T01:16:44.751Z,6.9
2016-05-15T01:16:54.751Z,7
2016-05-15T01:17:04.767Z,6.9
2016-05-15T01:17:14.751Z,7
2016-05-15T01:17:24.769Z,7
2016-05-15T01:17:34.753Z,7
2016-05-15T01:17:44.753Z,7
2016-05-15T01:17:54.753Z,6.9
2016-05-15T01:18:04.784Z,7.1
2016-05-15T01:18:14.769Z,7
2016-05-15T01:18:24.756Z,7
2016-05-15T01:18:34.615Z,7
2016-05-15T01:18:45.303Z,7
2016-05-15T01:18:55.115Z,7
2016-05-15T01:19:04.772Z,7
2016-05-15T01:19:14.772Z,7
2016-05-15T01:19:25.243Z,6.9
2016-05-15T01:19:34.775Z,6.9
2016-05-15T01:19:44.775Z,7
2016-05-15T01:19:54.790Z,7
2016-05-15T01:20:04.775Z,7
2016-05-15T01:20:14.775Z,7
2016-05-15T01:20:24.777Z,7
2016-05-15T01:20:34.777Z,7
2016-05-15T01:20:44.777Z,7
2016-05-15T01:20:54.792Z,7
2016-05-15T01:21:04.777Z,7
2016-05-15T01:21:14.777Z,7
2016-05-15T01:21:24.781Z,7
2016-05-15T01:21:34.640Z,7
2016-05-15T01:21:44.796Z,7
2016-05-15T01:21:54.640Z,6.9
2016-05-15T01:22:04.640Z,7
2016-05-15T01:22:14.796Z,7
2016-05-15T01:22:24.642Z,7
2016-05-15T01:22:34.798Z,7
2016-05-15T01:22:44.798Z,6.8
2016-05-15T01:22:54.798Z,7
2016-05-15T01:23:04.798Z,7
2016-05-15T01:23:14.798Z,7
2016-05-15T01:23:24.801Z,6.9
2016-05-15T01:23:34.801Z,7
2016-05-15T01:23:44.801Z,7
2016-05-15T01:23:54.801Z,6.9
2016-05-15T01:24:04.661Z,6.8
2016-05-15T01:24:14.832Z,6.8
2016-05-15T01:24:24.803Z,6.9
2016-05-15T01:24:34.819Z,6.9
2016-05-15T01:24:44.819Z,6.9
2016-05-15T01:24:54.819Z,6.8
2016-05-15T01:25:04.819Z,6.9
2016-05-15T01:25:14.819Z,6.9
2016-05-15T01:25:24.822Z,6.9
2016-05-15T01:25:34.822Z,6.8
2016-05-15T01:25:44.822Z,6.9
2016-05-15T01:25:54.822Z,6.8
2016-05-15T01:26:04.822Z,6.8
2016-05-15T01:26:14.822Z,6.9
2016-05-15T01:26:24.840Z,6.9
2016-05-15T01:26:34.840Z,6.9
2016-05-15T01:26:44.840Z,6.9
2016-05-15T01:26:54.840Z,6.8
2016-05-15T01:27:04.840Z,6.9
2016-05-15T01:27:14.840Z,6.9
2016-05-15T01:27:24.842Z,6.8
2016-05-15T01:27:34.686Z,6.9
2016-05-15T01:27:44.842Z,6.9
2016-05-15T01:27:54.842Z,6.9
2016-05-15T01:28:04.842Z,6.9
2016-05-15T01:28:14.842Z,6.8
2016-05-15T01:28:24.845Z,6.9
2016-05-15T01:28:34.705Z,6.8
2016-05-15T01:28:44.845Z,7
2016-05-15T01:28:54.845Z,6.8
2016-05-15T01:29:04.689Z,6.9
2016-05-15T01:29:14.861Z,6.8
2016-05-15T01:29:24.848Z,7
2016-05-15T01:29:34.864Z,6.8
2016-05-15T01:29:44.848Z,7
2016-05-15T01:29:54.848Z,7
2016-05-15T01:30:04.880Z,7
2016-05-15T01:30:14.864Z,7
2016-05-15T01:30:24.866Z,7
2016-05-15T01:30:34.866Z,7
2016-05-15T01:30:44.866Z,7
2016-05-15T01:30:54.866Z,7
2016-05-15T01:31:04.866Z,7
2016-05-15T01:31:14.882Z,7
2016-05-15T01:31:24.869Z,7
2016-05-15T01:31:34.869Z,7
2016-05-15T01:31:44.885Z,7
2016-05-15T01:31:54.885Z,6.9
2016-05-15T01:32:04.869Z,7
2016-05-15T01:32:14.885Z,6.9
2016-05-15T01:32:24.888Z,6.9
2016-05-15T01:32:34.731Z,7
2016-05-15T01:32:44.888Z,7.1
2016-05-15T01:32:54.888Z,7
2016-05-15T01:33:04.888Z,7.1
2016-05-15T01:33:14.747Z,7.1
2016-05-15T01:33:24.891Z,7
2016-05-15T01:33:34.750Z,7.1
2016-05-15T01:33:44.891Z,7.1
2016-05-15T01:33:54.906Z,7.1
2016-05-15T01:34:04.906Z,7.1
2016-05-15T01:34:14.906Z,7
2016-05-15T01:34:24.908Z,7.1
2016-05-15T01:34:34.908Z,7.1
2016-05-15T01:34:44.908Z,7.1
2016-05-15T01:34:54.908Z,7.1
2016-05-15T01:35:04.908Z,7.1
2016-05-15T01:35:14.908Z,7.1
2016-05-15T01:35:24.911Z,7.1
2016-05-15T01:35:34.911Z,7.1
2016-05-15T01:35:44.911Z,7.1
2016-05-15T01:35:54.911Z,7.1
2016-05-15T01:36:04.911Z,7.1
2016-05-15T01:36:14.911Z,7.1
2016-05-15T01:36:24.914Z,7.1
2016-05-15T01:36:34.914Z,7.2
2016-05-15T01:36:44.774Z,7.1
2016-05-15T01:36:54.914Z,7.1
2016-05-15T01:37:04.930Z,7.2
2016-05-15T01:37:14.774Z,7.1
2016-05-15T01:37:24.932Z,7.1
2016-05-15T01:37:34.932Z,7.1
2016-05-15T01:37:44.932Z,7.2
2016-05-15T01:37:54.932Z,7.2
2016-05-15T01:38:04.776Z,7.1
2016-05-15T01:38:14.932Z,7.2
2016-05-15T01:38:24.951Z,7.1
2016-05-15T01:38:34.951Z,7
2016-05-15T01:38:44.794Z,7.1
2016-05-15T01:38:54.951Z,7.1
2016-05-15T01:39:04.951Z,7.1
2016-05-15T01:39:14.951Z,7.1
2016-05-15T01:39:24.938Z,7
2016-05-15T01:39:34.954Z,7
2016-05-15T01:39:44.969Z,7.1
2016-05-15T01:39:54.954Z,7.1
2016-05-15T01:40:04.954Z,7.1
2016-05-15T01:40:14.797Z,7
2016-05-15T01:40:24.956Z,7
2016-05-15T01:40:34.956Z,7.1
2016-05-15T01:40:44.956Z,7
2016-05-15T01:40:54.971Z,7
2016-05-15T01:41:04.956Z,7.1
2016-05-15T01:41:14.956Z,7
2016-05-15T01:41:24.974Z,7
2016-05-15T01:41:34.802Z,7
2016-05-15T01:41:44.802Z,6.9
2016-05-15T01:41:54.974Z,6.9
2016-05-15T01:42:04.974Z,7
2016-05-15T01:42:14.974Z,6.9
2016-05-15T01:42:24.976Z,7
2016-05-15T01:42:34.992Z,7
2016-05-15T01:42:44.976Z,7
2016-05-15T01:42:54.976Z,7
2016-05-15T01:43:04.836Z,7
2016-05-15T01:43:14.976Z,7
2016-05-15T01:43:24.979Z,7
2016-05-15T01:43:34.979Z,7
2016-05-15T01:43:44.979Z,7
2016-05-15T01:43:54.979Z,7
2016-05-15T01:44:04.995Z,7
2016-05-15T01:44:14.979Z,7
2016-05-15T01:44:24.982Z,7
2016-05-15T01:44:34.998Z,7
2016-05-15T01:44:44.998Z,7
2016-05-15T01:44:55.013Z,6.9
2016-05-15T01:45:04.998Z,6.9
2016-05-15T01:45:14.998Z,7
2016-05-15T01:45:24.844Z,7
2016-05-15T01:45:35.000Z,7
2016-05-15T01:45:45.000Z,7
2016-05-15T01:45:55.000Z,7
2016-05-15T01:46:05.000Z,6.9
2016-05-15T01:46:15.000Z,7
2016-05-15T01:46:25.003Z,7
2016-05-15T01:46:35.018Z,7
2016-05-15T01:46:45.003Z,6.9
2016-05-15T01:46:55.003Z,7
2016-05-15T01:47:05.018Z,7
2016-05-15T01:47:15.018Z,6.9
2016-05-15T01:47:25.021Z,7
2016-05-15T01:47:35.006Z,7
2016-05-15T01:47:45.021Z,6.9
2016-05-15T01:47:55.021Z,6.9
2016-05-15T01:48:04.865Z,7
2016-05-15T01:48:15.021Z,7
2016-05-15T01:48:25.024Z,7
2016-05-15T01:48:35.712Z,7
2016-05-15T01:48:45.587Z,6.8
2016-05-15T01:48:55.337Z,6.9
2016-05-15T01:49:05.024Z,6.9
2016-05-15T01:49:15.040Z,7
2016-05-15T01:49:25.449Z,6.9
2016-05-15T01:49:35.027Z,6.8
2016-05-15T01:49:45.027Z,6.9
2016-05-15T01:49:55.027Z,6.9
2016-05-15T01:50:05.043Z,6.9
2016-05-15T01:50:15.043Z,7
2016-05-15T01:50:24.889Z,7
2016-05-15T01:50:35.045Z,6.9
2016-05-15T01:50:45.045Z,6.9
2016-05-15T01:50:54.889Z,6.9
2016-05-15T01:51:05.045Z,6.9
2016-05-15T01:51:15.045Z,7
2016-05-15T01:51:25.064Z,6.8
2016-05-15T01:51:35.048Z,6.8
2016-05-15T01:51:45.064Z,6.9
2016-05-15T01:51:55.048Z,6.9
2016-05-15T01:52:05.048Z,6.9
2016-05-15T01:52:15.048Z,6.9
2016-05-15T01:52:25.066Z,6.9
2016-05-15T01:52:35.066Z,6.9
2016-05-15T01:52:45.066Z,6.9
2016-05-15T01:52:55.066Z,6.9
2016-05-15T01:53:05.066Z,6.9
2016-05-15T01:53:15.066Z,6.9
2016-05-15T01:53:25.070Z,6.8
2016-05-15T01:53:35.070Z,6.8
2016-05-15T01:53:45.070Z,6.9
2016-05-15T01:53:55.070Z,6.9
2016-05-15T01:54:05.085Z,6.8
2016-05-15T01:54:15.085Z,6.8
2016-05-15T01:54:24.931Z,6.9
2016-05-15T01:54:35.087Z,6.8
2016-05-15T01:54:45.134Z,6.8
2016-05-15T01:54:55.072Z,6.9
2016-05-15T01:55:04.931Z,6.9
2016-05-15T01:55:15.103Z,6.9
2016-05-15T01:55:25.106Z,6.8
2016-05-15T01:55:35.106Z,6.9
2016-05-15T01:55:45.106Z,6.9
2016-05-15T01:55:55.090Z,6.8
2016-05-15T01:56:05.090Z,6.9
2016-05-15T01:56:15.106Z,6.9
2016-05-15T01:56:25.124Z,6.8
2016-05-15T01:56:34.952Z,6.9
2016-05-15T01:56:45.092Z,6.9
2016-05-15T01:56:55.092Z,6.8
2016-05-15T01:57:05.092Z,6.9
2016-05-15T01:57:15.108Z,6.9
2016-05-15T01:57:25.095Z,6.8
2016-05-15T01:57:35.111Z,6.9
2016-05-15T01:57:45.111Z,6.8
2016-05-15T01:57:55.095Z,6.8
2016-05-15T01:58:05.111Z,6.8
2016-05-15T01:58:15.111Z,6.9
2016-05-15T01:58:25.114Z,6.9
2016-05-15T01:58:34.973Z,6.9
2016-05-15T01:58:45.114Z,6.8
2016-05-15T01:58:55.130Z,6.9
2016-05-15T01:59:05.114Z,6.8
2016-05-15T01:59:14.989Z,6.9
2016-05-15T01:59:25.132Z,6.8
2016-05-15T01:59:35.132Z,6.8
2016-05-15T01:59:45.116Z,6.9
2016-05-15T01:59:55.132Z,6.9
2016-05-15T02:00:05.132Z,6.9
2016-05-15T02:00:14.975Z,7
2016-05-15T02:00:25.135Z,6.8
2016-05-15T02:00:35.135Z,7
2016-05-15T02:00:45.135Z,7
2016-05-15T02:00:55.150Z,7
2016-05-15T02:01:05.135Z,7
2016-05-15T02:01:15.135Z,7
2016-05-15T02:01:25.138Z,6.9
2016-05-15T02:01:35.138Z,7
2016-05-15T02:01:45.153Z,7
2016-05-15T02:01:55.138Z,7
2016-05-15T02:02:05.138Z,7
2016-05-15T02:02:15.153Z,7
2016-05-15T02:02:25.156Z,7
2016-05-15T02:02:35.141Z,6.9
2016-05-15T02:02:45.141Z,6.9
2016-05-15T02:02:55.156Z,6.9
2016-05-15T02:03:05.000Z,7
2016-05-15T02:03:15.078Z,7
2016-05-15T02:03:25.158Z,7
2016-05-15T02:03:35.158Z,7
2016-05-15T02:03:45.018Z,6.8
2016-05-15T02:03:55.158Z,6.9
2016-05-15T02:04:05.314Z,6.9
2016-05-15T02:04:15.158Z,6.9
2016-05-15T02:04:25.630Z,6.8
2016-05-15T02:04:35.021Z,6.8
2016-05-15T02:04:45.161Z,6.9
2016-05-15T02:04:55.161Z,6.9
2016-05-15T02:05:05.177Z,6.8
2016-05-15T02:05:15.177Z,6.9
2016-05-15T02:05:25.179Z,6.9
2016-05-15T02:05:35.179Z,6.9
2016-05-15T02:05:45.179Z,6.8
2016-05-15T02:05:55.179Z,6.8
2016-05-15T02:06:05.179Z,6.9
2016-05-15T02:06:15.179Z,6.8
2016-05-15T02:06:25.182Z,6.8
2016-05-15T02:06:35.182Z,6.9
2016-05-15T02:06:45.197Z,6.8
2016-05-15T02:06:55.182Z,6.9
2016-05-15T02:07:05.182Z,6.9
2016-05-15T02:07:15.213Z,6.8
2016-05-15T02:07:25.200Z,6.9
2016-05-15T02:07:35.185Z,6.9
2016-05-15T02:07:45.200Z,6.8
2016-05-15T02:07:55.200Z,6.9
2016-05-15T02:08:05.185Z,6.9
2016-05-15T02:08:15.044Z,6.8
2016-05-15T02:08:25.202Z,6.8
2016-05-15T02:08:35.202Z,6.8
2016-05-15T02:08:45.046Z,6.9
2016-05-15T02:08:55.202Z,6.8
2016-05-15T02:09:05.218Z,6.9
2016-05-15T02:09:15.202Z,6.8
2016-05-15T02:09:25.222Z,6.9
2016-05-15T02:09:35.206Z,6.8
2016-05-15T02:09:45.206Z,6.8
2016-05-15T02:09:55.206Z,6.8
2016-05-15T02:10:05.222Z,6.8
2016-05-15T02:10:15.222Z,6.8
2016-05-15T02:10:25.206Z,6.8
2016-05-15T02:10:35.208Z,6.8
2016-05-15T02:10:45.224Z,6.9
2016-05-15T02:10:55.224Z,6.8
2016-05-15T02:11:05.224Z,6.8
2016-05-15T02:11:15.224Z,6.8
2016-05-15T02:11:25.224Z,6.8
2016-05-15T02:11:35.227Z,6.8
2016-05-15T02:11:45.227Z,6.8
2016-05-15T02:11:55.227Z,6.8
2016-05-15T02:12:05.227Z,6.7
2016-05-15T02:12:15.227Z,6.9
2016-05-15T02:12:25.086Z,6.8
2016-05-15T02:12:35.229Z,6.8
2016-05-15T02:12:45.245Z,6.8
2016-05-15T02:12:55.229Z,6.8
2016-05-15T02:13:05.229Z,6.8
2016-05-15T02:13:15.229Z,6.8
2016-05-15T02:13:25.245Z,6.8
2016-05-15T02:13:35.249Z,6.8
2016-05-15T02:13:45.264Z,6.8
2016-05-15T02:13:55.092Z,6.8
2016-05-15T02:14:05.249Z,6.8
2016-05-15T02:14:15.264Z,6.7
2016-05-15T02:14:25.249Z,6.7
2016-05-15T02:14:35.251Z,6.9
2016-05-15T02:14:45.251Z,6.8
2016-05-15T02:14:55.251Z,6.8
2016-05-15T02:15:05.251Z,6.8
2016-05-15T02:15:15.110Z,6.8
2016-05-15T02:15:25.266Z,6.7
2016-05-15T02:15:35.253Z,6.8
2016-05-15T02:15:45.112Z,6.8
2016-05-15T02:15:55.268Z,6.8
2016-05-15T02:16:05.268Z,6.8
2016-05-15T02:16:15.268Z,6.8
2016-05-15T02:16:25.268Z,6.8
2016-05-15T02:16:35.272Z,6.8
2016-05-15T02:16:45.272Z,6.8
2016-05-15T02:16:55.288Z,6.8
2016-05-15T02:17:05.272Z,6.7
2016-05-15T02:17:15.304Z,6.7
2016-05-15T02:17:25.272Z,6.8
2016-05-15T02:17:35.134Z,6.8
2016-05-15T02:17:45.274Z,6.7
2016-05-15T02:17:55.274Z,6.7
2016-05-15T02:18:05.134Z,6.8
2016-05-15T02:18:15.274Z,6.8
2016-05-15T02:18:25.290Z,6.8
2016-05-15T02:18:35.292Z,6.8
2016-05-15T02:18:45.292Z,6.8
2016-05-15T02:18:55.292Z,6.8
2016-05-15T02:19:05.292Z,6.8
2016-05-15T02:19:15.808Z,6.8
2016-05-15T02:19:25.339Z,6.8
2016-05-15T02:19:35.296Z,6.8
2016-05-15T02:19:45.296Z,6.8
2016-05-15T02:19:55.296Z,6.8